Pagrindinis puslapis
METAR-TAF:

METAR-TAF

Oro uostai :

San Andresas, Kolumbija

platuma: 12-35N, ilguma: 081-43W, Aukštis: 1 m

Dabartinis oras

Ataskaita buvo paskelbta 36 minutes, ne 22:00 UTC
Vėjas 13 kt iš Rytų, svyruoja nuo Rytų/Šiaurės Rytų ir Rytų/Pietryčių
Temperatūra 29°C
Drėgmė 79%
Slėgis 1009 hPa
Matomumas 10 km arba daugiau
Išsisklaidę debesys ne aukštis 1700 ft
Išsisklaidę debesys ne aukštis 20000 ft

METAR: SKSP 022200Z 09013KT 060V120 9999 SCT017 SCT200 29/25 Q1009 RMK A2981

Laikas: 17:36 (22:36 UTC)

Prognozė

Ataskaita buvo paskelbta 6 valandos ir 6 minutes, ne 16:30 UTC
Prognozė galioja nuo 02 metu 18 UTC su 03 metu 18 UTC
Vėjas 11 kt iš Rytų
Matomumas 10 km arba daugiau
Išsisklaidę debesys ne aukštis 1400 ft
Laikinai
nuo 02 metu 18 UTC su 02 metu 20 UTC
dulksna
Laikinai
nuo 02 metu 22 UTC su 03 metu 04 UTC
Mažai debesys ne aukštis 1500 ft, aukštai iškilę kamuoliniai debesys.
Su prošvaistėmis ne aukštis 7000 ft
lietus

TAF: SKSP 021630Z 0218/0318 09011KT 9999 SCT014 TEMPO 0218/0220 DZ TEMPO 0222/0304 RA FEW015TCU BKN070 TX30/0218Z TN24/0310Z

Orai ataskaitas ir orų prognozės (METAR, TAF).

turimą stotys yra geltonos ir raudonos taškus žemėlapyje.

Perkelti pele per norėdami pamatyti stoties vardą.

Tada spustelėkite, norėdami matyti oro stebėjimo ir prognozės.

Norėdami pakeisti žemėlapį: spustelėkite ant žalios mygtukų su juodo kryžiaus žemyn,; žalią mygtuką su brūkšneliu, jei norite nutolinti; arba žalių rodyklių gretimoms žemėlapius.


METAR-TAF: